createdAt,value
2017-09-02T00:00:34.668Z,99.90
2017-09-02T00:03:03.067Z,99.90
2017-09-02T00:05:31.328Z,99.90
2017-09-02T00:07:59.460Z,99.90
2017-09-02T00:10:27.583Z,99.90
2017-09-02T00:12:55.721Z,99.90
2017-09-02T00:15:23.826Z,99.90
2017-09-02T00:17:58.614Z,99.90
2017-09-02T00:20:27.461Z,99.90
2017-09-02T00:22:55.620Z,99.90
2017-09-02T00:25:23.740Z,99.90
2017-09-02T00:27:52.371Z,99.90
2017-09-02T00:30:20.558Z,99.90
2017-09-02T00:32:48.848Z,99.90
2017-09-02T00:35:17.819Z,99.90
2017-09-02T00:37:46.096Z,99.90
2017-09-02T00:40:14.222Z,99.90
2017-09-02T00:42:42.407Z,99.90
2017-09-02T00:45:11.529Z,99.90
2017-09-02T00:47:39.665Z,99.90
2017-09-02T00:50:07.900Z,99.90
2017-09-02T00:52:37.391Z,99.90
2017-09-02T00:55:05.637Z,99.90
2017-09-02T00:57:33.886Z,99.90
2017-09-02T01:00:02.367Z,99.90
2017-09-02T01:02:31.022Z,99.90
2017-09-02T01:04:59.573Z,99.90
2017-09-02T01:07:28.794Z,99.90
2017-09-02T01:09:57.672Z,99.90
2017-09-02T01:12:26.054Z,99.90
2017-09-02T01:14:56.138Z,99.90
2017-09-02T01:17:25.161Z,99.90
2017-09-02T01:19:54.312Z,99.90
2017-09-02T01:22:30.647Z,99.90
2017-09-02T01:24:58.851Z,99.90
2017-09-02T01:27:27.027Z,99.90
2017-09-02T01:29:59.073Z,99.90
2017-09-02T01:32:27.267Z,99.90
2017-09-02T01:35:08.939Z,99.90
2017-09-02T01:37:37.705Z,99.90
2017-09-02T01:40:06.574Z,99.90
2017-09-02T01:42:35.764Z,99.90
2017-09-02T01:45:03.938Z,99.90
2017-09-02T01:47:35.602Z,99.90
2017-09-02T01:53:16.826Z,99.90
2017-09-02T01:55:45.111Z,99.90
2017-09-02T01:58:13.435Z,99.90
2017-09-02T02:00:42.582Z,99.90
2017-09-02T02:03:10.703Z,99.90
2017-09-02T02:05:39.738Z,99.90
2017-09-02T02:08:07.822Z,99.90
2017-09-02T02:10:35.945Z,99.90
2017-09-02T02:13:04.281Z,99.90
2017-09-02T02:15:32.498Z,99.90
2017-09-02T02:18:00.853Z,99.90
2017-09-02T02:20:28.998Z,99.90
2017-09-02T02:22:57.117Z,99.90
2017-09-02T02:25:25.584Z,99.90
2017-09-02T02:27:54.804Z,99.90
2017-09-02T02:30:22.959Z,99.90
2017-09-02T02:32:51.076Z,99.90
2017-09-02T02:35:19.224Z,99.90
2017-09-02T02:37:47.322Z,99.90
2017-09-02T02:40:15.432Z,99.90
2017-09-02T02:42:43.557Z,99.90
2017-09-02T02:45:12.261Z,99.90
2017-09-02T02:47:40.416Z,99.90
2017-09-02T02:50:08.557Z,99.90
2017-09-02T02:52:37.501Z,99.90
2017-09-02T02:55:05.699Z,99.90
2017-09-02T02:57:35.730Z,99.90
2017-09-02T03:00:03.926Z,99.90
2017-09-02T03:02:39.333Z,99.90
2017-09-02T03:05:08.777Z,99.90
2017-09-02T03:07:37.039Z,99.90
2017-09-02T03:10:05.236Z,99.90
2017-09-02T03:12:33.627Z,99.90
2017-09-02T03:15:02.744Z,99.90
2017-09-02T03:17:30.899Z,99.90
2017-09-02T03:19:59.013Z,99.90
2017-09-02T03:22:27.159Z,99.90
2017-09-02T03:24:55.573Z,99.90
2017-09-02T03:27:23.684Z,99.90
2017-09-02T03:29:55.574Z,99.90
2017-09-02T03:32:23.714Z,99.90
2017-09-02T03:34:52.053Z,99.90
2017-09-02T03:37:22.731Z,99.90
2017-09-02T03:39:50.967Z,99.90
2017-09-02T03:42:19.064Z,99.90
2017-09-02T03:44:47.242Z,99.90
2017-09-02T03:47:17.979Z,99.90
2017-09-02T03:49:56.478Z,99.90
2017-09-02T03:52:24.921Z,99.90
2017-09-02T03:54:53.432Z,99.90
2017-09-02T03:57:25.858Z,99.90
2017-09-02T03:59:53.980Z,99.90
2017-09-02T04:02:23.425Z,99.90
2017-09-02T04:04:52.206Z,99.90
2017-09-02T04:07:20.591Z,99.90
2017-09-02T04:09:48.766Z,99.90
2017-09-02T04:12:16.915Z,99.90
2017-09-02T04:14:50.698Z,99.90
2017-09-02T04:17:19.012Z,99.90
2017-09-02T04:19:47.170Z,99.90
2017-09-02T04:22:15.299Z,99.90
2017-09-02T04:24:43.643Z,99.90
2017-09-02T04:27:12.545Z,99.90
2017-09-02T04:29:41.473Z,99.90
2017-09-02T04:32:09.600Z,99.90
2017-09-02T04:34:40.931Z,99.90
2017-09-02T04:37:09.616Z,99.90
2017-09-02T04:39:40.847Z,99.90
2017-09-02T04:42:10.332Z,99.90
2017-09-02T04:44:43.151Z,99.90
2017-09-02T04:47:11.419Z,99.90
2017-09-02T04:49:39.588Z,99.90
2017-09-02T04:52:07.794Z,99.90
2017-09-02T04:54:37.440Z,99.90
2017-09-02T04:57:06.612Z,99.90
2017-09-02T04:59:34.751Z,99.90
2017-09-02T05:02:04.035Z,99.90
2017-09-02T05:04:32.281Z,99.90
2017-09-02T05:07:01.322Z,99.90
2017-09-02T05:09:32.941Z,99.90
2017-09-02T05:12:01.799Z,99.90
2017-09-02T05:14:29.914Z,99.90
2017-09-02T05:16:59.083Z,99.90
2017-09-02T05:19:27.228Z,99.90
2017-09-02T05:21:55.852Z,99.90
2017-09-02T05:24:26.438Z,99.90
2017-09-02T05:27:00.314Z,99.90
2017-09-02T05:29:28.449Z,99.90
2017-09-02T05:31:56.565Z,99.90
2017-09-02T05:34:24.926Z,99.90
2017-09-02T05:36:54.544Z,99.90
2017-09-02T06:03:47.946Z,99.90
2017-09-02T06:06:17.123Z,99.90
2017-09-02T06:08:45.267Z,99.90
2017-09-02T06:11:14.361Z,99.90
2017-09-02T06:13:42.530Z,99.90
2017-09-02T06:16:10.693Z,99.90
2017-09-02T06:18:38.797Z,99.90
2017-09-02T06:21:07.033Z,99.90
2017-09-02T06:23:37.441Z,99.90
2017-09-02T06:26:05.593Z,99.90
2017-09-02T06:28:33.865Z,99.90
2017-09-02T06:31:02.083Z,99.90
2017-09-02T06:33:31.218Z,99.90
2017-09-02T06:35:59.395Z,99.90
2017-09-02T06:38:27.549Z,99.90
2017-09-02T06:40:57.426Z,99.90
2017-09-02T06:43:28.899Z,99.90
2017-09-02T06:45:57.172Z,99.90
2017-09-02T06:48:26.084Z,99.90
2017-09-02T06:50:55.200Z,99.90
2017-09-02T06:53:27.817Z,99.90
2017-09-02T06:55:56.004Z,99.90
2017-09-02T06:58:33.592Z,99.90
2017-09-02T07:04:15.906Z,99.90
2017-09-02T07:06:46.655Z,99.90
2017-09-02T07:09:14.786Z,99.90
2017-09-02T07:11:44.870Z,99.90
2017-09-02T07:14:19.806Z,99.90
2017-09-02T07:16:49.375Z,99.90
2017-09-02T07:19:33.372Z,99.90
2017-09-02T07:22:05.363Z,99.90
2017-09-02T07:24:37.336Z,99.90
2017-09-02T07:27:09.733Z,99.90
2017-09-02T07:29:37.938Z,99.90
2017-09-02T07:32:06.139Z,99.90
2017-09-02T07:34:34.258Z,99.90
2017-09-02T07:37:02.982Z,99.90
2017-09-02T07:39:31.834Z,99.90
2017-09-02T07:42:00.234Z,99.90
2017-09-02T07:44:37.674Z,99.90
2017-09-02T07:47:13.153Z,99.90
2017-09-02T07:49:41.353Z,99.90
2017-09-02T07:52:09.693Z,99.90
2017-09-02T07:54:37.863Z,99.90
2017-09-02T07:57:08.493Z,99.90
2017-09-02T07:59:40.323Z,99.90
2017-09-02T08:02:11.334Z,99.90
2017-09-02T08:04:39.457Z,99.90
2017-09-02T08:07:10.158Z,99.90
2017-09-02T08:09:38.332Z,99.90
2017-09-02T08:12:06.507Z,99.90
2017-09-02T08:14:40.567Z,99.90
2017-09-02T08:17:08.725Z,99.90
2017-09-02T08:19:36.936Z,99.90
2017-09-02T08:25:12.218Z,99.90
2017-09-02T08:27:42.340Z,99.90
2017-09-02T08:30:14.567Z,99.90
2017-09-02T08:32:50.560Z,99.90
2017-09-02T08:35:24.285Z,99.90
2017-09-02T08:38:10.259Z,99.90
2017-09-02T08:40:41.137Z,99.90
2017-09-02T08:43:10.968Z,99.90
2017-09-02T08:45:41.095Z,99.90
2017-09-02T08:48:10.439Z,99.90
2017-09-02T08:50:38.792Z,99.90
2017-09-02T08:53:09.949Z,99.90
2017-09-02T08:55:38.162Z,99.90
2017-09-02T08:58:06.270Z,99.90
2017-09-02T09:00:34.511Z,99.90
2017-09-02T09:03:02.660Z,99.90
2017-09-02T09:05:32.195Z,99.90
2017-09-02T09:08:00.420Z,99.90
2017-09-02T09:10:28.673Z,99.90
2017-09-02T09:12:57.523Z,99.90
2017-09-02T09:15:28.231Z,99.90
2017-09-02T09:17:59.744Z,99.90
2017-09-02T09:20:27.945Z,99.90
2017-09-02T09:22:58.173Z,99.90
2017-09-02T09:25:26.381Z,99.90
2017-09-02T09:27:55.018Z,99.90
2017-09-02T09:30:26.422Z,99.90
2017-09-02T09:33:15.825Z,99.90
2017-09-02T09:35:43.984Z,99.90
2017-09-02T09:38:12.128Z,99.90
2017-09-02T09:40:40.243Z,99.90
2017-09-02T09:43:08.480Z,99.90
2017-09-02T09:45:37.214Z,99.90
2017-09-02T09:48:06.156Z,99.90
2017-09-02T09:50:40.463Z,99.90
2017-09-02T09:53:10.144Z,99.90
2017-09-02T09:58:26.047Z,99.90
2017-09-02T10:00:54.861Z,99.90
2017-09-02T10:03:23.003Z,99.90
2017-09-02T10:05:53.914Z,99.90
2017-09-02T10:08:26.418Z,99.90
2017-09-02T10:10:55.039Z,99.90
2017-09-02T10:13:23.180Z,99.90
2017-09-02T10:15:51.315Z,99.90
2017-09-02T10:18:19.526Z,99.90
2017-09-02T10:20:48.828Z,99.90
2017-09-02T10:23:18.849Z,99.90
2017-09-02T10:25:47.388Z,99.90
2017-09-02T10:28:15.620Z,99.90
2017-09-02T10:55:05.823Z,99.90
2017-09-02T10:57:34.536Z,99.90
2017-09-02T11:00:02.777Z,99.90
2017-09-02T11:02:33.672Z,99.90
2017-09-02T11:05:02.740Z,99.90
2017-09-02T11:07:31.730Z,99.90
2017-09-02T11:10:00.803Z,99.90
2017-09-02T11:12:29.912Z,99.90
2017-09-02T11:14:58.093Z,99.90
2017-09-02T11:17:38.089Z,99.90
2017-09-02T11:20:06.177Z,99.90
2017-09-02T11:22:38.499Z,99.90
2017-09-02T11:25:06.627Z,99.90
2017-09-02T11:27:34.776Z,99.90
2017-09-02T11:30:06.193Z,99.90
2017-09-02T11:32:34.397Z,99.90
2017-09-02T11:35:03.057Z,99.90
2017-09-02T11:37:41.450Z,99.90
2017-09-02T11:40:15.518Z,99.90
2017-09-02T11:42:56.910Z,99.90
2017-09-02T11:45:27.478Z,99.90
2017-09-02T11:47:58.425Z,99.90
2017-09-02T11:50:27.373Z,99.90
2017-09-02T11:52:55.604Z,99.90
2017-09-02T11:55:23.796Z,99.90
2017-09-02T11:57:52.822Z,99.90
2017-09-02T12:00:21.199Z,99.90
2017-09-02T12:02:49.379Z,99.90
2017-09-02T12:05:19.661Z,99.90
2017-09-02T12:07:53.566Z,99.90
2017-09-02T12:10:21.891Z,99.90
2017-09-02T12:12:50.264Z,99.90
2017-09-02T12:15:18.571Z,99.90
2017-09-02T12:17:57.961Z,99.90
2017-09-02T12:23:26.222Z,99.90
2017-09-02T12:25:59.402Z,99.90
2017-09-02T12:28:29.641Z,99.90
2017-09-02T12:34:02.891Z,99.90
2017-09-02T12:36:31.210Z,99.60
2017-09-02T12:38:59.467Z,99.00
2017-09-02T12:41:27.710Z,99.00
2017-09-02T12:43:58.631Z,98.40
2017-09-02T12:46:36.142Z,98.00
2017-09-02T12:49:04.557Z,98.40
2017-09-02T12:51:38.652Z,98.50
2017-09-02T12:54:14.295Z,98.90
2017-09-02T12:56:50.501Z,99.10
2017-09-02T12:59:19.215Z,99.30
2017-09-02T13:01:47.457Z,99.40
2017-09-02T13:04:21.579Z,98.30
2017-09-02T13:07:04.297Z,97.50
2017-09-02T13:09:32.542Z,94.40
2017-09-02T13:12:10.467Z,95.40
2017-09-02T13:14:45.289Z,96.70
2017-09-02T13:17:20.326Z,97.50
2017-09-02T13:19:52.498Z,97.60
2017-09-02T13:22:24.683Z,96.80
2017-09-02T13:24:54.614Z,96.90
2017-09-02T13:27:56.349Z,97.20
2017-09-02T13:30:30.365Z,97.20
2017-09-02T13:32:58.730Z,97.30
2017-09-02T13:35:29.421Z,96.70
2017-09-02T13:37:58.998Z,95.80
2017-09-02T13:40:31.849Z,94.70
2017-09-02T13:43:08.626Z,93.80
2017-09-02T13:45:46.494Z,94.70
2017-09-02T13:48:16.021Z,96.30
2017-09-02T13:50:45.409Z,96.40
2017-09-02T13:53:14.842Z,95.70
2017-09-02T13:55:43.953Z,93.90
2017-09-02T13:58:16.832Z,94.10
2017-09-02T14:00:46.126Z,93.90
2017-09-02T14:03:28.059Z,94.40
2017-09-02T14:05:57.184Z,93.40
2017-09-02T14:08:28.072Z,91.80
2017-09-02T14:10:57.628Z,92.20
2017-09-02T14:13:37.886Z,92.70
2017-09-02T14:16:06.759Z,93.50
2017-09-02T14:21:36.489Z,93.80
2017-09-02T14:24:04.927Z,94.10
2017-09-02T14:26:35.516Z,94.30
2017-09-02T14:29:07.419Z,94.40
2017-09-02T14:31:45.654Z,93.50
2017-09-02T14:34:14.975Z,92.80
2017-09-02T14:36:43.433Z,92.60
2017-09-02T14:42:11.631Z,92.20
2017-09-02T14:44:41.945Z,92.60
2017-09-02T14:50:10.017Z,93.70
2017-09-02T14:52:56.186Z,93.70
2017-09-02T14:55:24.973Z,93.20
2017-09-02T14:58:01.339Z,93.20
2017-09-02T15:00:29.489Z,96.20
2017-09-02T15:02:58.594Z,97.30
2017-09-02T15:05:33.839Z,97.80
2017-09-02T15:08:02.149Z,97.80
2017-09-02T15:10:31.496Z,97.00
2017-09-02T15:13:00.238Z,96.60
2017-09-02T15:15:28.435Z,95.90
2017-09-02T15:18:15.106Z,95.80
2017-09-02T15:20:43.851Z,95.30
2017-09-02T15:23:14.439Z,97.20
2017-09-02T15:25:42.644Z,98.40
2017-09-02T15:28:12.609Z,98.90
2017-09-02T15:30:43.025Z,98.90
2017-09-02T15:33:12.679Z,99.10
2017-09-02T15:35:50.094Z,98.00
2017-09-02T15:38:19.088Z,97.30
2017-09-02T15:40:49.292Z,97.30
2017-09-02T15:43:18.769Z,95.90
2017-09-02T15:45:55.348Z,95.50
2017-09-02T15:48:23.942Z,96.00
2017-09-02T15:50:52.215Z,97.10
2017-09-02T15:53:21.034Z,97.90
2017-09-02T15:55:49.691Z,98.40
2017-09-02T15:58:18.091Z,98.80
2017-09-02T16:00:48.264Z,98.60
2017-09-02T16:03:29.337Z,99.20
2017-09-02T16:05:59.087Z,99.90
2017-09-02T16:08:35.053Z,99.90
2017-09-02T16:11:04.434Z,99.90
2017-09-02T16:13:32.532Z,99.90
2017-09-02T16:16:01.480Z,99.90
2017-09-02T16:18:30.829Z,99.90
2017-09-02T16:20:59.738Z,99.90
2017-09-02T18:53:57.334Z,99.90
2017-09-02T18:59:35.630Z,99.90
2017-09-02T19:02:11.867Z,99.90
2017-09-02T19:04:58.810Z,99.90
2017-09-02T19:07:42.642Z,99.90
2017-09-02T19:10:41.731Z,99.90
2017-09-02T19:13:16.956Z,99.90
2017-09-02T19:15:53.994Z,99.90
2017-09-02T19:18:52.101Z,99.90
2017-09-02T19:21:30.550Z,99.90
2017-09-02T19:24:18.434Z,99.90
2017-09-02T19:35:42.690Z,99.90
2017-09-02T19:38:17.124Z,99.90
2017-09-02T19:53:32.362Z,99.90
2017-09-02T19:58:59.156Z,99.90
2017-09-02T20:01:34.283Z,99.90
2017-09-02T20:09:54.066Z,99.90
2017-09-02T20:12:31.789Z,99.90
2017-09-02T20:15:00.736Z,99.90
2017-09-02T20:17:35.769Z,99.90
2017-09-02T20:20:08.222Z,99.90
2017-09-02T20:22:39.123Z,99.90
2017-09-02T20:25:22.769Z,99.90
2017-09-02T20:27:51.973Z,99.90
2017-09-02T20:30:38.058Z,99.90
2017-09-02T20:33:08.817Z,99.90
2017-09-02T20:35:43.482Z,99.90
2017-09-02T20:38:16.721Z,99.90
2017-09-02T20:40:52.090Z,99.90
2017-09-02T20:43:38.663Z,99.90
2017-09-02T20:46:20.789Z,99.90
2017-09-02T20:49:05.469Z,99.90
2017-09-02T20:54:45.358Z,99.90
2017-09-02T20:57:14.015Z,99.90
2017-09-02T20:59:55.573Z,99.90
2017-09-02T21:02:44.052Z,99.90
2017-09-02T21:05:14.172Z,99.90
2017-09-02T21:07:45.947Z,99.90
2017-09-02T21:10:15.321Z,99.90
2017-09-02T21:12:43.872Z,99.90
2017-09-02T21:15:20.994Z,99.90
2017-09-02T21:20:42.919Z,99.90
2017-09-02T21:23:20.696Z,99.90
2017-09-02T21:25:53.429Z,99.90
2017-09-02T21:28:29.915Z,99.90
2017-09-02T21:34:57.460Z,99.90
2017-09-02T21:53:41.051Z,99.90
2017-09-02T22:02:18.358Z,99.90
2017-09-02T22:05:06.819Z,99.90
2017-09-02T22:08:02.374Z,99.90
2017-09-02T22:10:57.382Z,99.90
2017-09-02T22:13:26.034Z,99.90
2017-09-02T22:19:07.477Z,99.90
2017-09-02T22:21:37.912Z,99.90
2017-09-02T22:24:18.335Z,99.90
2017-09-02T22:26:46.452Z,99.90
2017-09-02T22:29:15.622Z,99.90
2017-09-02T22:31:50.977Z,99.90
2017-09-02T22:34:19.763Z,99.90
2017-09-02T22:36:53.398Z,99.90
2017-09-02T22:39:31.302Z,99.90
2017-09-02T22:41:59.440Z,99.90
2017-09-02T22:44:54.577Z,99.90
2017-09-02T22:47:23.761Z,99.90
2017-09-02T22:49:54.900Z,99.90
2017-09-02T22:52:23.951Z,99.90
2017-09-02T22:54:52.169Z,99.90
2017-09-02T22:57:38.065Z,99.90
2017-09-02T23:00:09.339Z,99.90
2017-09-02T23:02:54.342Z,99.90
2017-09-02T23:05:28.554Z,99.90
2017-09-02T23:08:03.380Z,99.90
2017-09-02T23:10:47.301Z,99.90
2017-09-02T23:13:17.996Z,99.90
2017-09-02T23:18:25.364Z,99.90
2017-09-02T23:20:57.356Z,99.90
2017-09-02T23:23:47.670Z,99.90
2017-09-02T23:26:25.371Z,99.90
2017-09-02T23:29:07.105Z,99.90
2017-09-02T23:34:43.761Z,99.90
2017-09-02T23:37:11.994Z,99.90
2017-09-02T23:39:42.891Z,99.90
2017-09-02T23:42:11.753Z,99.90
2017-09-02T23:44:39.885Z,99.90
2017-09-02T23:47:08.166Z,99.90
2017-09-02T23:49:40.834Z,99.90
2017-09-02T23:52:17.452Z,99.90
2017-09-02T23:54:53.407Z,99.90
2017-09-02T23:57:26.607Z,99.90
2017-09-02T23:59:55.472Z,99.90
